Tiempo atmosférico en la estación meteorológica de Chipiona, Cádiz (10 m.)



Fecha
DESCASC
Temp. máxima en grados centígrados (hora)
DESCASC
Temp. mínima en grados centígrados (hora)
DESCASC
Temp. media en grados centígrados
DESCASC
Racha de viento máxima en m/sg (hora)
DESCASC
Velocidad máxima media en intervalos de 10 minutos(hora)
DESCASC
Precipitaciones diarias en mm
DESCASC
Precipitaciones de 00:00 a 06:00 en mm
DESCASC
Precipitaciones de 06:00 a 12:00 en mm
DESCASC
Precipitaciones de 12:00 a 18:00 en mm
DESCASC
Precipitaciones de 18:00 a 24:00 en mm
DESCASC
30-12-2019 -- (--) -- (--) -- -- (--) -- (--) -- 0 0 0 --
31-12-2019 -- (--) -- (--) -- -- (--) -- (--) -- -- -- 0 0
26-12-2019 20.6 (16:30) 11 (00:00) 15.8 8.33 (15:20) 4.72 (13:40) 0 0 0 0 0
21-01-2020 14.3 (14:50) 7.4 (00:00) 10.9 11.67 (10:20) 5.83 (00:50) 0 0 0 0 0
20-01-2020 11.9 (17:20) 6.5 (00:00) 9.2 16.67 (10:30) 10 (10:30) 0 0 0 0 0
19-01-2020 17.5 (15:40) 10.2 (00:00) 13.8 12.78 (00:10) 7.5 (00:10) 0 0 0 0 0
17-01-2020 19.1 (12:30) 10.3 (00:00) 14.7 4.72 (12:50) 3.06 (12:50) 0 0 0 0 0
16-01-2020 19.2 (14:00) 5.9 (00:00) 12.6 6.11 (14:30) 3.89 (17:00) 0 0 0 0 0
15-01-2020 18.5 (14:50) 8.3 (00:00) 13.4 8.33 (14:30) 5 (14:10) 0 0 0 0 0
14-01-2020 17 (15:10) 5.4 (00:00) 11.2 4.44 (13:00) 2.78 (18:30) 0 0 0 0 0
13-01-2020 17.2 (16:20) 2.2 (00:00) 9.7 5 (13:20) 3.06 (13:20) 0 0 0 0 0
12-01-2020 16.9 (16:20) 4.8 (00:00) 10.8 5.28 (12:50) 2.78 (09:40) 0 0 0 0 0
11-01-2020 17.1 (16:10) 6.6 (00:00) 11.9 7.5 (10:20) 4.72 (10:30) 0 0 0 0 0
10-01-2020 15.5 (16:20) 6.2 (00:00) 10.8 7.22 (07:30) 3.89 (07:40) 0 0 0 0 0
09-01-2020 17.1 (13:30) 7.5 (00:00) 12.3 6.11 (16:00) 4.17 (16:00) 0 0 0 0 0
08-01-2020 17.2 (16:50) 3.6 (00:00) 10.4 5 (11:10) 2.5 (10:50) 0 0 0 0 0
07-01-2020 16.3 (17:20) 4.1 (00:00) 10.2 4.17 (14:30) 2.5 (10:40) 0 0 0 0 0
06-01-2020 17 (16:30) 5.2 (00:00) 11.1 5.28 (13:30) 3.33 (13:30) 0 0 0 0 0
05-01-2020 16.8 (16:20) 6.5 (00:00) 11.6 5.28 (05:00) 3.06 (06:00) 0 0 0 0 0
04-01-2020 14.7 (15:30) 4.6 (00:00) 9.6 6.67 (14:50) 3.89 (12:00) 0 0 0 0 0
03-01-2020 16 (15:30) 8 (00:00) 12 5.28 (15:10) 2.5 (14:40) 0 0 0 0 0
02-01-2020 16.9 (16:10) 5.3 (00:00) 11.1 4.17 (14:50) 2.5 (23:30) 0 0 0 0 0
01-01-2020 17.9 (15:50) 6 (00:00) 11.9 4.44 (16:40) 2.78 (11:10) 0 0 0 0 0
29-12-2019 18.9 (16:20) 7.5 (00:00) 13.2 7.22 (16:30) 4.44 (02:10) 0 0 0 0 0
28-12-2019 19.5 (16:50) 7.1 (00:00) 13.3 5.28 (12:10) 3.61 (23:30) 0 0 0 0 0
27-12-2019 21.3 (16:00) 10.3 (00:00) 15.8 4.17 (16:20) 2.78 (00:50) 0 0 0 0 0
25-12-2019 20 (16:10) 8.5 (00:00) 14.3 3.89 (10:50) 2.5 (11:00) 0 0 0 0 0
18-01-2020 17.1 (13:30) 9.1 (00:00) 13.1 11.11 (23:59) 7.5 (23:59) 1.4 0 0.4 0.8 0.2
22-01-2020 12.6 (14:20) 8.6 (00:00) 10.6 9.44 (15:30) 5.28 (23:50) 11.6 1.8 0.8 8.4 0.6
23-01-2020 14.3 (11:30) 9.5 (00:00) 11.9 20 (12:10) 8.06 (11:30) 33.6 6 23.6 2.6 1.4

Gráficas

Temp. máximas Temp. mínimas Temp. medias Precipitaciones Rachas de viento máximas Velocidades máximas media en intervalos de 10 minutos

Datos horarios

Fecha y hora oficial Temperatura (ºC) Velocidad del viento (km/h) Dirección del viento Racha (km/h) Dirección de racha Precipitación (mm) Presión (hPa) Tendencia (hPa) Humedad (%)
2020-01-23 23:00:00 10.9 9 Sudeste 21 Sudeste 0 -- -- 99
2020-01-23 22:00:00 11.1 13 Sudeste 27 Sudeste 0.2 -- -- 99
2020-01-23 21:00:00 11.1 14 Sudeste 22 Sudeste 0.6 -- -- 98
2020-01-23 20:00:00 11.3 10 Sudeste 24 Sudeste 0.2 -- -- 98
2020-01-23 19:00:00 11.6 14 Sudeste 27 Sudeste 0.4 -- -- 97
2020-01-23 18:00:00 12 16 Sudeste 29 Sudeste 0.4 -- -- 97
2020-01-23 17:00:00 12.2 17 Sudeste 33 Sudeste 0 -- -- 93
2020-01-23 16:00:00 12.8 20 Sudeste 39 Sudeste 0.4 -- -- 89
2020-01-23 15:00:00 13.2 21 Sur 33 Sur 0.4 -- -- 90
2020-01-23 14:00:00 13.6 23 Sur 45 Sur 0.6 -- -- 91
2020-01-23 13:00:00 13.5 17 Sudeste 72 Sudeste 0.8 -- -- 90
2020-01-23 12:00:00 13.8 27 Sudeste 46 Sudeste 0 -- -- 85
2020-01-23 11:00:00 13.8 21 Sudeste 39 Sudeste 0 -- -- 90
2020-01-23 10:00:00 10.5 3 Oeste 21 Nordeste 1.6 -- -- 99
2020-01-23 09:00:00 9.6 8 Nordeste 15 Este 8.2 -- -- 98
2020-01-23 08:00:00 9.5 2 Noroeste 36 Oeste 7.2 -- -- 96
2020-01-23 07:00:00 10.9 13 Este 22 Este 6.6 -- -- 96
2020-01-23 06:00:00 10.4 6 Sudeste 27 Sudeste 1 -- -- 96
2020-01-23 05:00:00 10.8 10 Sudeste 24 Este 1 -- -- 98
2020-01-23 04:00:00 11 17 Este 24 Este 3 -- -- 97
2020-01-23 03:00:00 11 12 Sudeste 33 Sudeste 0.8 -- -- 95
2020-01-23 02:00:00 10.6 14 Sudeste 24 Sudeste 0.2 -- -- 97
2020-01-23 01:00:00 10.6 11 Sudeste 29 Sudeste 0 -- -- 96
2020-01-23 00:00:00 10.3 17 Sudeste 30 Sudeste 0.6 -- -- 96
2020-01-22 23:00:00 10.1 14 Este 27 Sudeste 0 -- -- 96
2020-01-22 22:00:00 9.8 15 Sudeste 28 Sudeste 0 -- -- 96
2020-01-22 21:00:00 10.1 15 Este 26 Este 0 -- -- 98
2020-01-22 20:00:00 9.7 13 Este 26 Sudeste 0 -- -- 97
2020-01-22 19:00:00 10.3 14 Sudeste 25 Sudeste 0 -- -- 96
2020-01-22 18:00:00 10.5 10 Este 17 Este 3.6 -- -- 96
2020-01-22 17:00:00 10.9 7 Sudoeste 21 Este 1.6 -- -- 92
2020-01-22 16:00:00 10.9 14 Sudeste 34 Sudeste 2.6 -- -- 93
2020-01-22 15:00:00 12.3 10 Sudeste 25 Este 0.6 -- -- 91
2020-01-22 14:00:00 12.4 10 Sudeste 23 Este 0 -- -- 89
2020-01-22 13:00:00 11.9 14 Este 23 Este 0 -- -- 91
2020-01-22 12:00:00 10.2 8 Nordeste 14 Nordeste 0.2 -- -- 97
2020-01-22 11:00:00 9.8 7 Nordeste 12 Este 0 -- -- 96
2020-01-22 10:00:00 9.3 4 Este 9 Este 0 -- -- 96
2020-01-22 09:00:00 9 5 Este 10 Este 0 -- -- 97
2020-01-22 08:00:00 9.2 4 Sudeste 13 Sudeste 0.2 -- -- 96
2020-01-22 07:00:00 9 8 Sudeste 14 Sudeste 0.4 -- -- 96
2020-01-22 06:00:00 8.9 8 Sudeste 12 Sudeste 1 -- -- 95
2020-01-22 05:00:00 8.6 6 Sur 9 Sur 0.8 -- -- 92
2020-01-22 04:00:00 9 3 Sudeste 4 Sur 0 -- -- 88
2020-01-22 03:00:00 9.4 0 Calma 5 Nordeste 0 -- -- 80
2020-01-22 02:00:00 9.8 4 Nordeste 9 Norte 0 -- -- 78
2020-01-22 01:00:00 10.2 3 Norte 10 Norte 0 -- -- 75
2020-01-22 00:00:00 10.8 5 Norte 11 Noroeste 0 -- -- 75
2020-01-21 23:00:00 11.1 5 Noroeste 9 Noroeste 0 -- -- 72
2020-01-21 22:00:00 10.9 0 Calma 5 Noroeste 0 -- -- 74
2020-01-21 21:00:00 10.6 3 Norte 7 Norte 0 -- -- 75
2020-01-21 20:00:00 10.9 3 Nordeste 15 Nordeste 0 -- -- 71
2020-01-21 19:00:00 11.4 4 Norte 15 Norte 0 -- -- 68
2020-01-21 18:00:00 12.5 7 Norte 23 Nordeste 0 -- -- 62
2020-01-21 17:00:00 13 10 Nordeste 23 Norte 0 -- -- 59
2020-01-21 16:00:00 13.4 12 Norte 31 Norte 0 -- -- 59
2020-01-21 15:00:00 14.2 15 Norte 28 Nordeste 0 -- -- 56
2020-01-21 14:00:00 13.4 13 Norte 29 Norte 0 -- -- 58
2020-01-21 13:00:00 13.2 12 Norte 36 Nordeste 0 -- -- 58
2020-01-21 12:00:00 12.4 14 Nordeste 31 Nordeste 0 -- -- 63
2020-01-21 11:00:00 10.8 16 Nordeste 42 Nordeste 0 -- -- 67
2020-01-21 10:00:00 9.1 19 Nordeste 36 Nordeste 0 -- -- 73
2020-01-21 09:00:00 8.3 19 Nordeste 32 Nordeste 0 -- -- 77
2020-01-21 08:00:00 8 14 Nordeste 30 Nordeste 0 -- -- 79
2020-01-21 07:00:00 7.4 15 Nordeste 28 Nordeste 0 -- -- 82
2020-01-21 06:00:00 7.8 14 Nordeste 28 Nordeste 0 -- -- 80
2020-01-21 05:00:00 8.6 9 Norte 26 Nordeste 0 -- -- 78
2020-01-21 04:00:00 9 13 Nordeste 30 Nordeste 0 -- -- 75
2020-01-21 03:00:00 8.8 14 Nordeste 27 Nordeste 0 -- -- 76
2020-01-21 02:00:00 9 12 Nordeste 33 Nordeste 0 -- -- 77
2020-01-21 01:00:00 9.8 21 Nordeste 33 Nordeste 0 -- -- 72
2020-01-21 00:00:00 9.6 17 Nordeste 29 Nordeste 0 -- -- 73
2020-01-20 23:00:00 9.2 12 Nordeste 25 Nordeste 0 -- -- 74
2020-01-20 22:00:00 9.1 18 Nordeste 32 Nordeste 0 -- -- 71
2020-01-20 21:00:00 9.5 16 Nordeste 27 Nordeste 0 -- -- 70
2020-01-20 20:00:00 9.5 13 Nordeste 22 Nordeste 0 -- -- 74
2020-01-20 19:00:00 9.9 13 Nordeste 32 Nordeste 0 -- -- 72
2020-01-20 18:00:00 10.8 21 Nordeste 46 Nordeste 0 -- -- 67
2020-01-20 17:00:00 11.7 26 Nordeste 46 Nordeste 0 -- -- 56
2020-01-20 16:00:00 11.2 27 Nordeste 49 Nordeste 0 -- -- 56
2020-01-20 15:00:00 11.1 33 Nordeste 54 Nordeste 0 -- -- 54
2020-01-20 14:00:00 10.6 27 Nordeste 51 Nordeste 0 -- -- 56
2020-01-20 13:00:00 10.7 25 Nordeste 59 Nordeste 0 -- -- 55
2020-01-20 12:00:00 9.8 32 Nordeste 55 Nordeste 0 -- -- 58
2020-01-20 11:00:00 8.7 33 Nordeste 60 Nordeste 0 -- -- 63
2020-01-20 10:00:00 8.3 27 Nordeste 49 Nordeste 0 -- -- 62
2020-01-20 09:00:00 6.9 22 Nordeste 41 Nordeste 0 -- -- 67
2020-01-20 08:00:00 6.5 21 Nordeste 44 Nordeste 0 -- -- 70
2020-01-20 07:00:00 6.8 26 Nordeste 46 Nordeste 0 -- -- 68
2020-01-20 06:00:00 7.2 27 Nordeste 50 Norte 0 -- -- 67
2020-01-20 05:00:00 7.2 19 Nordeste 44 Nordeste 0 -- -- 69
2020-01-20 04:00:00 8 26 Nordeste 46 Nordeste 0 -- -- 67
2020-01-20 03:00:00 8.7 24 Nordeste 45 Norte 0 -- -- 67
2020-01-20 02:00:00 9.4 25 Nordeste 54 Nordeste 0 -- -- 65
2020-01-20 01:00:00 9.9 21 Norte 48 Nordeste 0 -- -- 65
2020-01-20 00:00:00 10.2 15 Norte 36 Norte 0 -- -- 69
2020-01-19 23:00:00 10.9 13 Norte 44 Nordeste 0 -- -- 66
2020-01-19 22:00:00 12.2 21 Nordeste 43 Nordeste 0 -- -- 57
2020-01-19 21:00:00 12.8 10 Norte 19 Noroeste 0 -- -- 62
2020-01-19 20:00:00 13.2 9 Norte 22 Norte 0 -- -- 63
2020-01-19 19:00:00 14.4 11 Norte 29 Nordeste 0 -- -- 58
2020-01-19 18:00:00 15.6 9 Norte 31 Norte 0 -- -- 55
2020-01-19 17:00:00 16.1 11 Norte 31 Norte 0 -- -- 54
2020-01-19 16:00:00 16.3 13 Norte 27 Norte 0 -- -- 54
2020-01-19 15:00:00 16.8 12 Norte 27 Noroeste 0 -- -- 58
2020-01-19 14:00:00 16 15 Noroeste 25 Noroeste 0 -- -- 69
2020-01-19 13:00:00 15.4 14 Noroeste 28 Noroeste 0 -- -- 73
2020-01-19 12:00:00 14.1 15 Noroeste 32 Noroeste 0 -- -- 78
2020-01-19 11:00:00 13 18 Noroeste 35 Noroeste 0 -- -- 82
2020-01-19 10:00:00 12.4 20 Noroeste 41 Noroeste 0 -- -- 84
2020-01-19 09:00:00 12.2 25 Noroeste 41 Noroeste 0 -- -- 85
2020-01-19 08:00:00 12.1 23 Noroeste 41 Oeste 0 -- -- 84
2020-01-19 07:00:00 12.3 20 Noroeste 36 Noroeste 0 -- -- 83
2020-01-19 06:00:00 12.6 21 Noroeste 39 Oeste 0 -- -- 81
2020-01-19 05:00:00 13.2 21 Noroeste 36 Noroeste 0 -- -- 84
2020-01-19 04:00:00 14 23 Noroeste 36 Noroeste 0 -- -- 84
2020-01-19 03:00:00 13.7 15 Oeste 25 Oeste 0 -- -- 89
2020-01-19 02:00:00 13.7 15 Oeste 31 Noroeste 0 -- -- 90
2020-01-19 01:00:00 13.9 20 Noroeste 46 Noroeste 0 -- -- 91
2020-01-19 00:00:00 14.7 27 Noroeste 40 Oeste 0 -- -- 98
2020-01-18 23:00:00 16.2 18 Sudoeste 29 Sudoeste 0.2 -- -- 100
2020-01-18 22:00:00 16.1 20 Sudoeste 35 Sudoeste 0 -- -- 100
2020-01-18 21:00:00 16 18 Sudoeste 30 Sudoeste 0 -- -- 100
2020-01-18 20:00:00 16.1 14 Sudoeste 27 Sudoeste 0 -- -- 100
2020-01-18 19:00:00 16.2 14 Sudoeste 29 Sudoeste 0 -- -- 100
2020-01-18 18:00:00 16.1 14 Sudoeste 27 Sudoeste 0 -- -- 100
2020-01-18 17:00:00 16 17 Sudoeste 30 Sudoeste 0.4 -- -- 99
2020-01-18 16:00:00 16.4 15 Sudoeste 29 Sur 0.2 -- -- 97
2020-01-18 15:00:00 16.6 14 Sur 28 Sur 0.2 -- -- 97
2020-01-18 14:00:00 16.8 14 Sur 28 Sur 0 -- -- 97
2020-01-18 13:00:00 16.8 14 Sur 23 Sur 0 -- -- 100
2020-01-18 12:00:00 15.5 10 Sudeste 15 Sudeste 0.2 -- -- 100
2020-01-18 11:00:00 14.3 5 Sudeste 11 Sudeste 0 -- -- 100
2020-01-18 10:00:00 13.7 6 Sudeste 9 Sudeste 0 -- -- 100
2020-01-18 09:00:00 12.8 4 Sudeste 8 Sudeste 0 -- -- 100
2020-01-18 08:00:00 12.4 2 Sur 10 Sudeste 0 -- -- 100
2020-01-18 07:00:00 11.7 4 Sudeste 6 Sudeste 0.2 -- -- 100
2020-01-18 06:00:00 11 3 Sudeste 8 Sudeste 0 -- -- 100
2020-01-18 05:00:00 9.9 3 Oeste 5 Oeste 0 -- -- 100
2020-01-18 04:00:00 9.4 3 Nordeste 5 Este 0 -- -- 100
2020-01-18 03:00:00 9.1 4 Este 5 Este 0 -- -- 100
2020-01-18 02:00:00 9.7 4 Este 8 Este 0 -- -- 100
2020-01-18 01:00:00 10.3 4 Este 8 Este 0 -- -- 100
2020-01-18 00:00:00 10.3 3 Nordeste 5 Este 0 -- -- 99
2020-01-17 23:00:00 10.6 4 Nordeste 6 Nordeste 0 -- -- 98
2020-01-17 22:00:00 11.3 2 Este 4 Este 0 -- -- 95
2020-01-17 21:00:00 11.9 2 Sudeste -- -- 0 -- -- 92
2020-01-17 20:00:00 13.5 0 Calma 9 Sudeste 0 -- -- 89
2020-01-17 19:00:00 15.9 3 Norte 6 Norte 0 -- -- 84
2020-01-17 18:00:00 17.9 4 Norte 8 Norte 0 -- -- 81
2020-01-17 17:00:00 18.6 3 Noroeste 9 Oeste 0 -- -- 79
2020-01-17 16:00:00 17.6 6 Oeste 12 Oeste 0 -- -- 86
2020-01-17 15:00:00 18.5 5 Noroeste 10 Noroeste 0 -- -- 81
2020-01-17 14:00:00 18.1 3 Noroeste 9 Norte 0 -- -- 84
2020-01-17 13:00:00 16.6 9 Noroeste 17 Noroeste 0 -- -- 90
2020-01-17 12:00:00 18.6 6 Sur 17 Sur 0 -- -- 84
2020-01-17 11:00:00 17.1 7 Sur 12 Sudeste 0 -- -- 93
2020-01-17 10:00:00 13.9 5 Sudeste 8 Sudeste 0 -- -- 99
2020-01-17 09:00:00 13.1 4 Sudeste 12 Sudeste 0 -- -- 99
2020-01-17 08:00:00 13 5 Sudeste 15 Sudeste 0 -- -- 99
2020-01-17 07:00:00 12.9 7 Sudeste 11 Sudeste 0 -- -- 98
2020-01-17 06:00:00 12.8 6 Sur 15 Sudeste 0 -- -- 98
2020-01-17 05:00:00 12.7 8 Sudeste 13 Sudeste 0 -- -- 98
2020-01-17 04:00:00 11.9 7 Sudeste 17 Sudeste 0 -- -- 97
2020-01-17 03:00:00 11.5 8 Sudeste 14 Sudeste 0 -- -- 96
2020-01-17 02:00:00 12.3 9 Sudeste 16 Sudeste 0 -- -- 96
2020-01-17 01:00:00 11.7 5 Sudeste 13 Sudeste 0 -- -- 97
2020-01-17 00:00:00 11.8 6 Sudeste 10 Sudeste 0 -- -- 97
2020-01-16 23:00:00 11.7 6 Sudeste 10 Sudeste 0 -- -- 95
2020-01-16 22:00:00 12.2 7 Sudeste 10 Sur 0 -- -- 94
2020-01-16 21:00:00 12.4 6 Sur 9 Sudeste 0 -- -- 95
2020-01-16 20:00:00 12.8 6 Sur 9 Sur 0 -- -- 92
2020-01-16 19:00:00 14 6 Sur 17 Sur 0 -- -- 87
2020-01-16 18:00:00 16.5 9 Sur 20 Sur 0 -- -- 79
2020-01-16 17:00:00 17.7 14 Sur 22 Sur 0 -- -- 76
2020-01-16 16:00:00 18.6 12 Sur 22 Sur 0 -- -- 66
2020-01-16 15:00:00 18.9 12 Sur 22 Sur 0 -- -- 60
2020-01-16 14:00:00 19.2 13 Sur 21 Sudeste 0 -- -- 48
2020-01-16 13:00:00 18.3 9 Sudeste 16 Sudeste 0 -- -- 53
2020-01-16 12:00:00 16.1 5 Sudeste 10 Este 0 -- -- 65
2020-01-16 11:00:00 13 6 Este 12 Este 0 -- -- 76
2020-01-16 10:00:00 8.8 3 Nordeste 6 Norte 0 -- -- 81
2020-01-16 09:00:00 5.9 3 Norte 7 Nordeste 0 -- -- 84
2020-01-16 08:00:00 6.3 4 Nordeste 8 Este 0 -- -- 84
2020-01-16 07:00:00 7.1 7 Este 10 Este 0 -- -- 83
2020-01-16 06:00:00 7.9 5 Este 9 Sudeste 0 -- -- 81
2020-01-16 05:00:00 8.8 8 Este 15 Este 0 -- -- 79
2020-01-16 04:00:00 8.5 8 Este 14 Este 0 -- -- 86
2020-01-16 03:00:00 9.3 8 Este 12 Este -- -- -- 88
2020-01-16 02:00:00 9.1 4 Este 8 Este 0 -- -- 90
2020-01-16 01:00:00 9.8 4 Este 9 Sudeste 0 -- -- 91
2020-01-16 00:00:00 10.6 3 Sudeste 8 Sudeste 0 -- -- 89
2020-01-15 23:00:00 11.8 6 Sudeste 13 Sudeste 0 -- -- 85
2020-01-15 22:00:00 12.4 7 Sudeste 13 Este 0 -- -- 85
2020-01-15 21:00:00 12.2 6 Este 12 Este 0 -- -- 88
2020-01-15 20:00:00 13.2 8 Sudeste 13 Sudeste 0 -- -- 89
2020-01-15 19:00:00 14.3 5 Sudeste 16 Sudeste 0 -- -- 86
2020-01-15 18:00:00 15.9 10 Sudeste 24 Sur 0 -- -- 83
2020-01-15 17:00:00 17.3 15 Sur 27 Sudeste 0 -- -- 77
2020-01-15 16:00:00 18 17 Sur 29 Sur 0 -- -- 74
2020-01-15 15:00:00 18.4 16 Sur 30 Sur 0 -- -- 74
2020-01-15 14:00:00 17.9 18 Sur 30 Sur 0 -- -- 76
2020-01-15 13:00:00 17.3 16 Sur 28 Sudeste 0 -- -- 79
2020-01-15 12:00:00 16.9 16 Sudeste 25 Sudeste 0 -- -- 82
2020-01-15 11:00:00 13.2 4 Este 9 Nordeste 0 -- -- 90
2020-01-15 10:00:00 10.6 4 Nordeste 9 Este 0 -- -- 100
2020-01-15 09:00:00 8.5 4 Nordeste 10 Este 0 -- -- 98
2020-01-15 08:00:00 9.3 5 Sudeste 16 Sudeste 0 -- -- 97
2020-01-15 07:00:00 9.7 7 Sudeste 21 Sudeste 0 -- -- 96
2020-01-15 06:00:00 9.3 10 Sudeste 16 Sudeste 0 -- -- 95
2020-01-15 05:00:00 8.7 10 Sudeste 15 Sudeste 0 -- -- 94
2020-01-15 04:00:00 8.8 8 Este 13 Sudeste 0 -- -- 93
2020-01-15 03:00:00 8.9 6 Este 12 Sudeste 0 -- -- 90
2020-01-15 02:00:00 9.1 8 Sudeste 14 Este 0 -- -- 89
2020-01-15 01:00:00 9.6 9 Este 14 Este 0 -- -- 88
2020-01-15 00:00:00 9.4 7 Este 10 Este 0 -- -- 88
2020-01-14 23:00:00 9.7 8 Este 11 Este 0 -- -- 88
2020-01-14 22:00:00 9.9 6 Este 9 Este 0 -- -- 87
2020-01-14 21:00:00 10 4 Este 6 Este 0 -- -- 88
2020-01-14 20:00:00 11.2 3 Nordeste 10 Sudeste 0 -- -- 83
2020-01-14 19:00:00 12.9 8 Sudeste 14 Sudeste 0 -- -- 79
2020-01-14 18:00:00 14.7 5 Sudeste 11 Sur 0 -- -- 75
2020-01-14 17:00:00 15.5 5 Sur 16 Sudoeste 0 -- -- 68
2020-01-14 16:00:00 16.8 9 Sur 15 Sur 0 -- -- 53
2020-01-14 15:00:00 16.9 6 Sudeste 15 Sudoeste 0 -- -- 55
2020-01-14 14:00:00 15.6 8 Oeste 16 Oeste 0 -- -- 65
2020-01-14 13:00:00 16.1 5 Sur 16 Sur 0 -- -- 65
2020-01-14 12:00:00 13.9 5 Este 10 Este 0 -- -- 74
2020-01-14 11:00:00 11.1 4 Este 8 Este 0 -- -- 84
2020-01-14 10:00:00 7.4 4 Nordeste 9 Nordeste 0 -- -- 98
2020-01-14 09:00:00 5.5 3 Nordeste 6 Nordeste 0 -- -- 97
2020-01-14 08:00:00 5.7 5 Nordeste 8 Este 0 -- -- 96
2020-01-14 07:00:00 5.7 0 Calma 9 Este 0 -- -- 96
2020-01-14 06:00:00 6.3 3 Este 5 Nordeste 0 -- -- 94
2020-01-14 05:00:00 8.2 2 Nordeste 8 Nordeste 0 -- -- 93
2020-01-14 04:00:00 8.7 3 Nordeste 8 Nordeste 0 -- -- 96
2020-01-14 03:00:00 8.2 3 Nordeste 9 Norte 0 -- -- 97
2020-01-14 02:00:00 8.6 6 Norte 10 Norte 0 -- -- 97
2020-01-14 01:00:00 6.6 4 Este 6 Este 0 -- -- 95
2020-01-14 00:00:00 6.9 4 Este 6 Este 0 -- -- 94
2020-01-13 23:00:00 7.7 3 Este 5 Este 0 -- -- 92
2020-01-13 22:00:00 9.1 4 Este 8 Este 0 -- -- 93
2020-01-13 21:00:00 10.7 4 Este 10 Noroeste 0 -- -- 88
2020-01-13 20:00:00 12.6 8 Noroeste 15 Oeste 0 -- -- 89
2020-01-13 19:00:00 13 9 Oeste 13 Oeste 0 -- -- 85
2020-01-13 18:00:00 14.4 8 Oeste 14 Sudoeste 0 -- -- 79
2020-01-13 17:00:00 16.9 6 Sudoeste 14 Sudoeste 0 -- -- 63
2020-01-13 16:00:00 17 5 Sudoeste 14 Noroeste 0 -- -- 63
2020-01-13 15:00:00 16.6 3 Norte 14 Nordeste 0 -- -- 62
2020-01-13 14:00:00 15.1 7 Nordeste 18 Nordeste 0 -- -- 64
2020-01-13 13:00:00 12.2 9 Norte 18 Norte 0 -- -- 73
2020-01-13 12:00:00 10.4 8 Norte 17 Nordeste 0 -- -- 80
2020-01-13 11:00:00 8.1 7 Nordeste 14 Nordeste 0 -- -- 86
2020-01-13 10:00:00 5.5 8 Nordeste 14 Nordeste 0 -- -- 98
2020-01-13 09:00:00 4 3 Norte 8 Norte 0 -- -- 99
2020-01-13 08:00:00 2.9 4 Nordeste 8 Nordeste 0 -- -- 97
2020-01-13 07:00:00 2.3 0 Calma 4 Nordeste 0 -- -- 96
2020-01-13 06:00:00 2.9 3 Nordeste 4 Nordeste 0 -- -- 95
2020-01-13 05:00:00 3.5 3 Norte 8 Este 0 -- -- 95
2020-01-13 04:00:00 3.5 4 Nordeste 5 Nordeste 0 -- -- 96
2020-01-13 03:00:00 3.1 3 Norte 5 Norte 0 -- -- 93
2020-01-13 02:00:00 3.8 4 Nordeste 5 Este 0 -- -- 92
2020-01-13 01:00:00 4.5 3 Este 5 Norte 0 -- -- 91
2020-01-13 00:00:00 5.2 3 Norte 5 Nordeste 0 -- -- 89
2020-01-12 23:00:00 6.1 2 Norte 8 Oeste 0 -- -- 88
2020-01-12 22:00:00 6.9 3 Este 5 Nordeste 0 -- -- 86
2020-01-12 21:00:00 8.2 0 Calma 4 Nordeste 0 -- -- 80
2020-01-12 20:00:00 10.7 4 Nordeste 8 Norte 0 -- -- 76
2020-01-12 19:00:00 13.3 3 Norte 11 Norte 0 -- -- 68
2020-01-12 18:00:00 15.8 5 Norte 12 Norte 0 -- -- 60
2020-01-12 17:00:00 16.8 6 Nordeste 17 Nordeste 0 -- -- 56
2020-01-12 16:00:00 16.8 8 Nordeste 17 Nordeste 0 -- -- 55
2020-01-12 15:00:00 15.6 9 Norte 18 Nordeste 0 -- -- 63
2020-01-12 14:00:00 14.4 7 Norte 16 Nordeste 0 -- -- 66
2020-01-12 13:00:00 13.3 8 Norte 19 Nordeste 0 -- -- 69
2020-01-12 12:00:00 11.8 10 Nordeste 17 Nordeste 0 -- -- 73
2020-01-12 11:00:00 9.3 7 Nordeste 14 Nordeste 0 -- -- 79
2020-01-12 10:00:00 6.7 9 Nordeste 16 Nordeste 0 -- -- 89
2020-01-12 09:00:00 5 6 Nordeste 13 Nordeste 0 -- -- 94
2020-01-12 08:00:00 5 8 Nordeste 10 Nordeste 0 -- -- 94
2020-01-12 07:00:00 5.4 5 Nordeste 12 Nordeste 0 -- -- 94
2020-01-12 06:00:00 5.9 4 Nordeste 9 Nordeste 0 -- -- 95
2020-01-12 05:00:00 5.8 4 Nordeste 8 Nordeste 0 -- -- 94
2020-01-12 04:00:00 6.3 4 Nordeste 8 Norte 0 -- -- 93
2020-01-12 03:00:00 7 3 Norte 8 Norte 0 -- -- 93
2020-01-12 02:00:00 7.3 4 Norte 8 Norte 0 -- -- 92
2020-01-12 01:00:00 8.1 5 Este 9 Este 0 -- -- 89
2020-01-12 00:00:00 7.5 6 Este 8 Este 0 -- -- 90
2020-01-11 23:00:00 7.5 3 Este 5 Este 0 -- -- 83
2020-01-11 22:00:00 9 4 Este 13 Este 0 -- -- 80
2020-01-11 21:00:00 9.6 4 Este 7 Nordeste 0 -- -- 78
2020-01-11 20:00:00 11.6 4 Nordeste 8 Nordeste 0 -- -- 72
2020-01-11 19:00:00 13.3 6 Nordeste 12 Norte 0 -- -- 67
2020-01-11 18:00:00 15.6 6 Nordeste 16 Nordeste 0 -- -- 60
2020-01-11 17:00:00 16.7 6 Norte 15 Nordeste 0 -- -- 58
2020-01-11 16:00:00 17 7 Norte 18 Norte 0 -- -- 57
2020-01-11 15:00:00 16.3 8 Norte 20 Nordeste 0 -- -- 56
2020-01-11 14:00:00 15.2 8 Norte 19 Norte 0 -- -- 60
2020-01-11 13:00:00 13.4 8 Norte 24 Nordeste 0 -- -- 64
2020-01-11 12:00:00 11.3 15 Nordeste 27 Nordeste 0 -- -- 66
2020-01-11 11:00:00 9.8 13 Nordeste 27 Nordeste 0 -- -- 69
2020-01-11 10:00:00 7.6 15 Nordeste 27 Nordeste 0 -- -- 74
2020-01-11 09:00:00 6.8 13 Nordeste 23 Nordeste 0 -- -- 77
2020-01-11 08:00:00 6.8 13 Nordeste 25 Nordeste 0 -- -- 77
2020-01-11 07:00:00 6.8 13 Nordeste 26 Norte 0 -- -- 78
2020-01-11 06:00:00 7.1 16 Nordeste 27 Nordeste 0 -- -- 76
2020-01-11 05:00:00 7.1 13 Nordeste 23 Nordeste 0 -- -- 79
2020-01-11 04:00:00 7.5 9 Nordeste 19 Nordeste 0 -- -- 82
2020-01-11 03:00:00 8 10 Nordeste 18 Nordeste 0 -- -- 83
2020-01-11 02:00:00 8.2 7 Norte 16 Norte 0 -- -- 87
2020-01-11 01:00:00 8.8 6 Norte 15 Norte 0 -- -- 87
2020-01-11 00:00:00 9 5 Norte 14 Norte 0 -- -- 83
2020-01-10 23:00:00 10.1 6 Norte 11 Norte 0 -- -- 80
2020-01-10 22:00:00 11.2 3 Noroeste 9 Noroeste 0 -- -- 85
2020-01-10 21:00:00 9.8 2 Noroeste 5 Nordeste 0 -- -- 87
2020-01-10 20:00:00 11 3 Norte 7 Norte 0 -- -- 81
2020-01-10 19:00:00 12.6 3 Norte 14 Oeste 0 -- -- 76
2020-01-10 18:00:00 14.3 6 Oeste 15 Norte 0 -- -- 69
2020-01-10 17:00:00 15.4 7 Norte 18 Norte 0 -- -- 61
2020-01-10 16:00:00 15.3 8 Norte 23 Nordeste 0 -- -- 64
2020-01-10 15:00:00 14.9 12 Nordeste 24 Nordeste 0 -- -- 63
2020-01-10 14:00:00 14.5 10 Norte 19 Norte 0 -- -- 70
2020-01-10 13:00:00 13.7 8 Norte 15 Nordeste 0 -- -- 67
2020-01-10 12:00:00 13.2 7 Norte 17 Noroeste 0 -- -- 71
2020-01-10 11:00:00 11.8 6 Noroeste 18 Norte 0 -- -- 81
2020-01-10 10:00:00 10.5 8 Norte 18 Norte 0 -- -- 89
2020-01-10 09:00:00 10 5 Norte 19 Noroeste 0 -- -- 89
2020-01-10 08:00:00 10.9 10 Noroeste 26 Noroeste 0 -- -- 90
2020-01-10 07:00:00 10.7 12 Noroeste 23 Noroeste 0 -- -- 94
2020-01-10 06:00:00 10.1 2 Norte 9 Norte 0 -- -- 97
2020-01-10 05:00:00 11.6 5 Noroeste 17 Noroeste 0 -- -- 98
2020-01-10 04:00:00 6.2 0 Calma 3 Nordeste 0 -- -- 95
2020-01-10 03:00:00 7.5 3 Este 4 Este 0 -- -- 93
2020-01-10 02:00:00 9.5 3 Noroeste 14 Oeste 0 -- -- 92
2020-01-10 01:00:00 10.8 2 Nordeste 12 Norte 0 -- -- 86
2020-01-10 00:00:00 12.5 5 Noroeste 18 Norte 0 -- -- 87
2020-01-09 23:00:00 7.5 2 Noroeste 8 Noroeste 0 -- -- 95
2020-01-09 22:00:00 7.9 3 Norte 8 Noroeste 0 -- -- 93
2020-01-09 21:00:00 9.3 0 Calma 6 Noroeste 0 -- -- 90
2020-01-09 20:00:00 11.1 5 Noroeste 13 Oeste 0 -- -- 89
2020-01-09 19:00:00 11.8 9 Oeste 17 Oeste 0 -- -- 87
2020-01-09 18:00:00 13.4 12 Oeste 18 Oeste 0 -- -- 84
2020-01-09 17:00:00 15.2 6 Oeste 17 Oeste 0 -- -- 77
2020-01-09 16:00:00 15.1 15 Oeste 22 Oeste 0 -- -- 78
2020-01-09 15:00:00 15.7 12 Oeste 19 Oeste 0 -- -- 77
2020-01-09 14:00:00 16.1 10 Oeste 17 Oeste 0 -- -- 74
2020-01-09 13:00:00 16.3 9 Sudeste 15 Este 0 -- -- 71
2020-01-09 12:00:00 14.7 6 Este 13 Este 0 -- -- 79
2020-01-09 11:00:00 12.3 4 Este 12 Este 0 -- -- 91
2020-01-09 10:00:00 10.2 5 Este 15 Este 0 -- -- 96
2020-01-09 09:00:00 8.6 9 Este 15 Sudeste 0 -- -- 97
2020-01-09 08:00:00 8.1 4 Sudeste 9 Sudeste 0 -- -- 96
2020-01-09 07:00:00 9.2 8 Sudeste 12 Sudeste 0 -- -- 96
2020-01-09 06:00:00 9.1 9 Sudeste 12 Sudeste 0 -- -- 98
2020-01-09 05:00:00 8.6 8 Sudeste 10 Sudeste 0 -- -- 97
2020-01-09 04:00:00 8.8 6 Sur 14 Sudeste 0 -- -- 95
2020-01-09 03:00:00 9 8 Sudeste 13 Sudeste 0 -- -- 96
2020-01-09 02:00:00 9.5 7 Sudeste 13 Sudeste 0 -- -- 95
2020-01-09 01:00:00 9.2 8 Sudeste 13 Sudeste 0 -- -- 97
2020-01-09 00:00:00 7.7 5 Sudeste 11 Sudeste 0 -- -- 96
2020-01-08 23:00:00 7.1 6 Sudeste 8 Sudeste 0 -- -- 96
2020-01-08 22:00:00 7.2 3 Sudeste 5 Sudeste 0 -- -- 93
2020-01-08 21:00:00 8 0 Calma 3 Sudeste 0 -- -- 90
2020-01-08 20:00:00 9.7 0 Calma 2 Sur 0 -- -- 87
2020-01-08 19:00:00 12.5 2 Noroeste 6 Noroeste 0 -- -- 82
2020-01-08 18:00:00 14.5 6 Noroeste 10 Oeste 0 -- -- 78
2020-01-08 17:00:00 17 3 Norte 9 Norte 0 -- -- 61
2020-01-08 16:00:00 16.5 6 Norte 11 Norte 0 -- -- 62
2020-01-08 15:00:00 16.2 5 Norte 14 Nordeste 0 -- -- 63
2020-01-08 14:00:00 14.8 7 Norte 14 Norte 0 -- -- 68
2020-01-08 13:00:00 13.3 9 Nordeste 15 Nordeste 0 -- -- 67
2020-01-08 12:00:00 11.5 6 Nordeste 18 Nordeste 0 -- -- 74
2020-01-08 11:00:00 9 8 Nordeste 16 Nordeste 0 -- -- 85
2020-01-08 10:00:00 6.5 5 Nordeste 12 Nordeste 0 -- -- 99
2020-01-08 09:00:00 5.2 8 Nordeste 14 Nordeste 0 -- -- 100
2020-01-08 08:00:00 5 7 Nordeste 10 Nordeste 0 -- -- 99
2020-01-08 07:00:00 3.6 4 Nordeste 6 Nordeste 0 -- -- 99
2020-01-08 06:00:00 4.7 3 Nordeste 5 Nordeste 0 -- -- 99
2020-01-08 05:00:00 5.6 3 Nordeste 6 Norte 0 -- -- 98
2020-01-08 04:00:00 5.1 5 Norte 8 Norte 0 -- -- 98
2020-01-08 03:00:00 4.9 3 Nordeste 4 Norte 0 -- -- 96
2020-01-08 02:00:00 5.1 3 Este 5 Este 0 -- -- 95
2020-01-08 01:00:00 5.8 4 Este 5 Este 0 -- -- 94
2020-01-08 00:00:00 6.4 4 Sudeste 6 Este 0 -- -- 93
2020-01-07 23:00:00 6.8 0 Calma 4 Norte 0 -- -- 91
2020-01-07 22:00:00 8.5 4 Norte 7 Este 0 -- -- 92
2020-01-07 21:00:00 9.2 3 Sudeste 8 Norte 0 -- -- 86
2020-01-07 20:00:00 10.6 4 Nordeste 8 Norte 0 -- -- 83
2020-01-07 19:00:00 13 3 Norte 6 Norte 0 -- -- 80
2020-01-07 18:00:00 15.8 3 Norte 8 Norte 0 -- -- 69
2020-01-07 17:00:00 16 3 Norte 8 Noroeste 0 -- -- 67
2020-01-07 16:00:00 16.2 3 Noroeste 10 Norte 0 -- -- 68
2020-01-07 15:00:00 15.6 6 Norte 15 Noroeste 0 -- -- 70
2020-01-07 14:00:00 14.9 5 Norte 13 Nordeste 0 -- -- 71
2020-01-07 13:00:00 13.5 7 Norte 12 Norte 0 -- -- 77
2020-01-07 12:00:00 11.1 4 Nordeste 13 Nordeste 0 -- -- 85
2020-01-07 11:00:00 8.6 8 Nordeste 15 Nordeste 0 -- -- 96
2020-01-07 10:00:00 6.4 4 Nordeste 12 Nordeste 0 -- -- 100
2020-01-07 09:00:00 4.1 2 Nordeste 7 Nordeste 0 -- -- 100
2020-01-07 08:00:00 5 5 Nordeste 10 Nordeste 0 -- -- 99
2020-01-07 07:00:00 5.8 6 Nordeste 11 Nordeste 0 -- -- 100
2020-01-07 06:00:00 6.3 4 Norte 7 Norte 0 -- -- 100
2020-01-07 05:00:00 5.9 5 Nordeste 7 Nordeste 0 -- -- 98
2020-01-07 04:00:00 5 3 Nordeste 4 Nordeste 0 -- -- 97
2020-01-07 03:00:00 5.3 0 Calma 3 Sudeste 0 -- -- 96
2020-01-07 02:00:00 6 2 Sudeste 5 Este 0 -- -- 96
2020-01-07 01:00:00 6.3 4 Este 7 Este 0 -- -- 95
2020-01-07 00:00:00 6.7 4 Este 6 Este 0 -- -- 94
2020-01-06 23:00:00 7.3 2 Sudeste 6 Sudeste 0 -- -- 91
2020-01-06 22:00:00 8.6 3 Norte 4 Nordeste 0 -- -- 91
2020-01-06 21:00:00 9.8 3 Norte 5 Noroeste 0 -- -- 86
2020-01-06 20:00:00 11.2 4 Nordeste 7 Nordeste 0 -- -- 81
2020-01-06 19:00:00 13.1 4 Nordeste 9 Nordeste 0 -- -- 76
2020-01-06 18:00:00 15.9 4 Norte 16 Norte 0 -- -- 66
2020-01-06 17:00:00 16.9 6 Norte 15 Nordeste 0 -- -- 63
2020-01-06 16:00:00 16.7 6 Nordeste 17 Nordeste 0 -- -- 63
2020-01-06 15:00:00 16.4 8 Nordeste 15 Norte 0 -- -- 65
2020-01-06 14:00:00 15.5 6 Norte 19 Nordeste 0 -- -- 69
2020-01-06 13:00:00 14.1 8 Nordeste 17 Nordeste 0 -- -- 76
2020-01-06 12:00:00 11.9 6 Norte 14 Norte 0 -- -- 87
2020-01-06 11:00:00 9.4 5 Norte 13 Norte 0 -- -- 97
2020-01-06 10:00:00 6.8 5 Nordeste 9 Nordeste 0 -- -- 100